sensor_id;sensor_type;location;lat;lon;timestamp;P1;durP1;ratioP1;P2;durP2;ratioP2
38089;SDS011;23904;52.322;10.232;2023-11-21T00:00:00;32.78;;;17.20;;
38089;SDS011;23904;52.322;10.232;2023-11-21T00:02:26;29.60;;;16.30;;
38089;SDS011;23904;52.322;10.232;2023-11-21T00:04:55;28.92;;;16.33;;
38089;SDS011;23904;52.322;10.232;2023-11-21T00:07:20;27.40;;;15.23;;
38089;SDS011;23904;52.322;10.232;2023-11-21T00:09:46;27.10;;;15.52;;
38089;SDS011;23904;52.322;10.232;2023-11-21T00:12:12;35.92;;;17.58;;
38089;SDS011;23904;52.322;10.232;2023-11-21T00:14:38;34.08;;;17.83;;
38089;SDS011;23904;52.322;10.232;2023-11-21T00:17:04;38.78;;;16.98;;
38089;SDS011;23904;52.322;10.232;2023-11-21T00:19:31;32.50;;;17.10;;
38089;SDS011;23904;52.322;10.232;2023-11-21T00:21:58;30.45;;;16.88;;
38089;SDS011;23904;52.322;10.232;2023-11-21T00:24:24;34.65;;;17.65;;
38089;SDS011;23904;52.322;10.232;2023-11-21T00:26:50;36.92;;;18.48;;
38089;SDS011;23904;52.322;10.232;2023-11-21T00:29:16;41.83;;;19.48;;
38089;SDS011;23904;52.322;10.232;2023-11-21T00:31:43;40.60;;;18.55;;
38089;SDS011;23904;52.322;10.232;2023-11-21T00:34:11;58.35;;;21.48;;
38089;SDS011;23904;52.322;10.232;2023-11-21T00:36:37;36.85;;;19.05;;
38089;SDS011;23904;52.322;10.232;2023-11-21T00:39:03;38.15;;;19.33;;
38089;SDS011;23904;52.322;10.232;2023-11-21T00:41:30;39.25;;;19.30;;
38089;SDS011;23904;52.322;10.232;2023-11-21T00:43:56;36.92;;;18.75;;
38089;SDS011;23904;52.322;10.232;2023-11-21T00:46:22;45.22;;;19.20;;
38089;SDS011;23904;52.322;10.232;2023-11-21T00:48:49;32.13;;;17.95;;
38089;SDS011;23904;52.322;10.232;2023-11-21T00:51:15;37.45;;;20.67;;
38089;SDS011;23904;52.322;10.232;2023-11-21T00:53:40;38.55;;;20.02;;
38089;SDS011;23904;52.322;10.232;2023-11-21T00:56:06;33.97;;;19.13;;
38089;SDS011;23904;52.322;10.232;2023-11-21T00:58:33;40.35;;;19.95;;
38089;SDS011;23904;52.322;10.232;2023-11-21T01:00:59;37.28;;;20.48;;
38089;SDS011;23904;52.322;10.232;2023-11-21T01:03:24;40.60;;;20.85;;
38089;SDS011;23904;52.322;10.232;2023-11-21T01:05:50;43.63;;;20.88;;
38089;SDS011;23904;52.322;10.232;2023-11-21T01:08:15;46.47;;;21.58;;
38089;SDS011;23904;52.322;10.232;2023-11-21T01:10:41;34.42;;;20.38;;
38089;SDS011;23904;52.322;10.232;2023-11-21T01:13:07;44.30;;;20.70;;
38089;SDS011;23904;52.322;10.232;2023-11-21T01:15:33;37.70;;;19.95;;
38089;SDS011;23904;52.322;10.232;2023-11-21T01:17:59;39.70;;;20.20;;
38089;SDS011;23904;52.322;10.232;2023-11-21T01:20:24;41.65;;;21.17;;
38089;SDS011;23904;52.322;10.232;2023-11-21T01:22:51;34.47;;;20.73;;
38089;SDS011;23904;52.322;10.232;2023-11-21T01:25:16;41.40;;;22.70;;
38089;SDS011;23904;52.322;10.232;2023-11-21T01:27:42;43.28;;;22.15;;
38089;SDS011;23904;52.322;10.232;2023-11-21T01:30:08;46.40;;;21.13;;
38089;SDS011;23904;52.322;10.232;2023-11-21T01:32:38;36.22;;;20.90;;
38089;SDS011;23904;52.322;10.232;2023-11-21T01:35:04;38.03;;;20.15;;
38089;SDS011;23904;52.322;10.232;2023-11-21T01:37:31;40.38;;;21.45;;
38089;SDS011;23904;52.322;10.232;2023-11-21T01:39:58;43.90;;;22.13;;
38089;SDS011;23904;52.322;10.232;2023-11-21T01:42:26;43.20;;;23.02;;
38089;SDS011;23904;52.322;10.232;2023-11-21T01:44:52;43.63;;;22.15;;
38089;SDS011;23904;52.322;10.232;2023-11-21T01:47:19;39.60;;;22.42;;
38089;SDS011;23904;52.322;10.232;2023-11-21T01:49:46;43.33;;;22.42;;
38089;SDS011;23904;52.322;10.232;2023-11-21T01:52:12;43.70;;;21.45;;
38089;SDS011;23904;52.322;10.232;2023-11-21T01:54:38;45.42;;;24.40;;
38089;SDS011;23904;52.322;10.232;2023-11-21T01:57:04;37.80;;;22.27;;
38089;SDS011;23904;52.322;10.232;2023-11-21T01:59:34;42.33;;;20.42;;
38089;SDS011;23904;52.322;10.232;2023-11-21T02:02:02;52.13;;;22.27;;
38089;SDS011;23904;52.322;10.232;2023-11-21T02:04:35;41.05;;;22.65;;
38089;SDS011;23904;52.322;10.232;2023-11-21T02:07:01;44.05;;;20.80;;
38089;SDS011;23904;52.322;10.232;2023-11-21T02:09:30;43.67;;;22.65;;
38089;SDS011;23904;52.322;10.232;2023-11-21T02:12:00;45.20;;;22.95;;
38089;SDS011;23904;52.322;10.232;2023-11-21T02:14:26;42.35;;;21.73;;
38089;SDS011;23904;52.322;10.232;2023-11-21T02:16:53;49.08;;;21.83;;
38089;SDS011;23904;52.322;10.232;2023-11-21T02:19:20;48.50;;;23.17;;
38089;SDS011;23904;52.322;10.232;2023-11-21T02:21:54;41.85;;;21.52;;
38089;SDS011;23904;52.322;10.232;2023-11-21T02:24:25;37.00;;;19.88;;
38089;SDS011;23904;52.322;10.232;2023-11-21T02:26:52;49.28;;;22.90;;
38089;SDS011;23904;52.322;10.232;2023-11-21T02:29:20;43.05;;;20.95;;
38089;SDS011;23904;52.322;10.232;2023-11-21T02:31:53;51.65;;;20.58;;
38089;SDS011;23904;52.322;10.232;2023-11-21T02:34:20;42.85;;;19.42;;
38089;SDS011;23904;52.322;10.232;2023-11-21T02:36:47;43.50;;;20.52;;
38089;SDS011;23904;52.322;10.232;2023-11-21T02:39:14;42.58;;;19.73;;
38089;SDS011;23904;52.322;10.232;2023-11-21T02:41:41;38.78;;;19.38;;
38089;SDS011;23904;52.322;10.232;2023-11-21T02:44:08;41.15;;;21.88;;
38089;SDS011;23904;52.322;10.232;2023-11-21T02:46:34;49.38;;;22.17;;
38089;SDS011;23904;52.322;10.232;2023-11-21T02:49:01;43.10;;;20.27;;
38089;SDS011;23904;52.322;10.232;2023-11-21T02:51:28;40.35;;;20.73;;
38089;SDS011;23904;52.322;10.232;2023-11-21T02:53:55;52.10;;;20.85;;
38089;SDS011;23904;52.322;10.232;2023-11-21T02:56:25;38.80;;;20.30;;
38089;SDS011;23904;52.322;10.232;2023-11-21T02:58:51;43.75;;;21.55;;
38089;SDS011;23904;52.322;10.232;2023-11-21T03:01:20;43.47;;;20.88;;
38089;SDS011;23904;52.322;10.232;2023-11-21T03:03:45;44.20;;;20.88;;
38089;SDS011;23904;52.322;10.232;2023-11-21T03:06:12;40.83;;;20.27;;
38089;SDS011;23904;52.322;10.232;2023-11-21T03:08:38;42.53;;;21.27;;
38089;SDS011;23904;52.322;10.232;2023-11-21T03:11:03;50.78;;;21.83;;
38089;SDS011;23904;52.322;10.232;2023-11-21T03:13:29;45.13;;;20.60;;
38089;SDS011;23904;52.322;10.232;2023-11-21T03:15:55;46.95;;;21.90;;
38089;SDS011;23904;52.322;10.232;2023-11-21T03:18:21;46.38;;;22.23;;
38089;SDS011;23904;52.322;10.232;2023-11-21T03:20:51;45.28;;;22.90;;
38089;SDS011;23904;52.322;10.232;2023-11-21T03:23:18;50.38;;;22.08;;
38089;SDS011;23904;52.322;10.232;2023-11-21T03:25:44;47.65;;;23.10;;
38089;SDS011;23904;52.322;10.232;2023-11-21T03:28:10;43.70;;;22.20;;
38089;SDS011;23904;52.322;10.232;2023-11-21T03:30:35;43.60;;;21.48;;
38089;SDS011;23904;52.322;10.232;2023-11-21T03:33:01;48.17;;;22.90;;
38089;SDS011;23904;52.322;10.232;2023-11-21T03:35:26;48.08;;;22.15;;
38089;SDS011;23904;52.322;10.232;2023-11-21T03:37:52;48.75;;;23.88;;
38089;SDS011;23904;52.322;10.232;2023-11-21T03:40:18;49.45;;;22.77;;
38089;SDS011;23904;52.322;10.232;2023-11-21T03:42:46;48.92;;;22.88;;
38089;SDS011;23904;52.322;10.232;2023-11-21T03:45:12;52.13;;;25.05;;
38089;SDS011;23904;52.322;10.232;2023-11-21T03:47:39;38.75;;;21.45;;
38089;SDS011;23904;52.322;10.232;2023-11-21T03:50:07;48.58;;;22.30;;
38089;SDS011;23904;52.322;10.232;2023-11-21T03:52:34;53.55;;;24.27;;
38089;SDS011;23904;52.322;10.232;2023-11-21T03:55:00;48.08;;;22.75;;
38089;SDS011;23904;52.322;10.232;2023-11-21T03:57:27;47.22;;;24.10;;
38089;SDS011;23904;52.322;10.232;2023-11-21T03:59:53;59.30;;;23.98;;
38089;SDS011;23904;52.322;10.232;2023-11-21T04:02:18;50.05;;;23.45;;
38089;SDS011;23904;52.322;10.232;2023-11-21T04:04:45;50.55;;;24.80;;
38089;SDS011;23904;52.322;10.232;2023-11-21T04:07:10;47.30;;;24.45;;
38089;SDS011;23904;52.322;10.232;2023-11-21T04:09:38;45.10;;;22.58;;
38089;SDS011;23904;52.322;10.232;2023-11-21T04:12:04;47.72;;;24.55;;
38089;SDS011;23904;52.322;10.232;2023-11-21T04:14:30;96.32;;;49.65;;
38089;SDS011;23904;52.322;10.232;2023-11-21T04:16:57;63.58;;;26.95;;
38089;SDS011;23904;52.322;10.232;2023-11-21T04:19:23;49.80;;;24.25;;
38089;SDS011;23904;52.322;10.232;2023-11-21T04:21:48;49.35;;;23.30;;
38089;SDS011;23904;52.322;10.232;2023-11-21T04:24:14;57.15;;;22.90;;
38089;SDS011;23904;52.322;10.232;2023-11-21T04:26:40;47.83;;;24.08;;
38089;SDS011;23904;52.322;10.232;2023-11-21T04:29:06;49.65;;;24.05;;
38089;SDS011;23904;52.322;10.232;2023-11-21T04:31:31;53.72;;;24.95;;
38089;SDS011;23904;52.322;10.232;2023-11-21T04:33:57;54.22;;;25.27;;
38089;SDS011;23904;52.322;10.232;2023-11-21T04:36:22;51.72;;;24.25;;
38089;SDS011;23904;52.322;10.232;2023-11-21T04:38:48;51.88;;;25.20;;
38089;SDS011;23904;52.322;10.232;2023-11-21T04:41:13;52.15;;;24.48;;
38089;SDS011;23904;52.322;10.232;2023-11-21T04:43:39;46.00;;;24.77;;
38089;SDS011;23904;52.322;10.232;2023-11-21T04:46:05;43.47;;;24.95;;
38089;SDS011;23904;52.322;10.232;2023-11-21T04:48:32;58.25;;;24.20;;
38089;SDS011;23904;52.322;10.232;2023-11-21T04:50:57;48.90;;;24.77;;
38089;SDS011;23904;52.322;10.232;2023-11-21T04:53:23;52.03;;;24.13;;
38089;SDS011;23904;52.322;10.232;2023-11-21T04:55:49;52.42;;;25.13;;
38089;SDS011;23904;52.322;10.232;2023-11-21T04:58:14;48.85;;;22.98;;
38089;SDS011;23904;52.322;10.232;2023-11-21T05:00:40;54.75;;;24.58;;
38089;SDS011;23904;52.322;10.232;2023-11-21T05:03:06;66.32;;;27.08;;
38089;SDS011;23904;52.322;10.232;2023-11-21T05:05:32;54.15;;;26.17;;
38089;SDS011;23904;52.322;10.232;2023-11-21T05:07:58;65.75;;;25.88;;
38089;SDS011;23904;52.322;10.232;2023-11-21T05:10:24;59.95;;;26.65;;
38089;SDS011;23904;52.322;10.232;2023-11-21T05:12:50;57.72;;;26.15;;
38089;SDS011;23904;52.322;10.232;2023-11-21T05:15:16;54.30;;;25.83;;
38089;SDS011;23904;52.322;10.232;2023-11-21T05:17:42;52.83;;;26.35;;
38089;SDS011;23904;52.322;10.232;2023-11-21T05:20:12;58.72;;;27.45;;
38089;SDS011;23904;52.322;10.232;2023-11-21T05:22:42;55.97;;;26.92;;
38089;SDS011;23904;52.322;10.232;2023-11-21T05:25:08;54.67;;;28.55;;
38089;SDS011;23904;52.322;10.232;2023-11-21T05:27:34;53.95;;;25.02;;
38089;SDS011;23904;52.322;10.232;2023-11-21T05:30:01;58.38;;;27.23;;
38089;SDS011;23904;52.322;10.232;2023-11-21T05:32:32;54.88;;;25.90;;
38089;SDS011;23904;52.322;10.232;2023-11-21T05:34:58;49.20;;;25.13;;
38089;SDS011;23904;52.322;10.232;2023-11-21T05:37:24;49.70;;;25.83;;
38089;SDS011;23904;52.322;10.232;2023-11-21T05:39:51;50.80;;;27.15;;
38089;SDS011;23904;52.322;10.232;2023-11-21T05:42:18;44.42;;;25.42;;
38089;SDS011;23904;52.322;10.232;2023-11-21T05:44:44;46.00;;;24.30;;
38089;SDS011;23904;52.322;10.232;2023-11-21T05:47:09;50.08;;;26.40;;
38089;SDS011;23904;52.322;10.232;2023-11-21T05:49:35;43.67;;;22.95;;
38089;SDS011;23904;52.322;10.232;2023-11-21T05:52:02;44.35;;;23.90;;
38089;SDS011;23904;52.322;10.232;2023-11-21T05:54:27;44.10;;;24.48;;
38089;SDS011;23904;52.322;10.232;2023-11-21T05:56:54;44.33;;;22.40;;
38089;SDS011;23904;52.322;10.232;2023-11-21T05:59:19;43.47;;;23.27;;
38089;SDS011;23904;52.322;10.232;2023-11-21T06:01:45;58.30;;;23.95;;
38089;SDS011;23904;52.322;10.232;2023-11-21T06:04:11;42.85;;;21.85;;
38089;SDS011;23904;52.322;10.232;2023-11-21T06:06:37;36.05;;;20.25;;
38089;SDS011;23904;52.322;10.232;2023-11-21T06:09:03;36.60;;;20.17;;
38089;SDS011;23904;52.322;10.232;2023-11-21T06:11:30;39.15;;;20.15;;
38089;SDS011;23904;52.322;10.232;2023-11-21T06:13:57;35.47;;;20.20;;
38089;SDS011;23904;52.322;10.232;2023-11-21T06:16:23;39.13;;;19.02;;
38089;SDS011;23904;52.322;10.232;2023-11-21T06:18:49;31.75;;;17.95;;
38089;SDS011;23904;52.322;10.232;2023-11-21T06:21:14;27.48;;;15.23;;
38089;SDS011;23904;52.322;10.232;2023-11-21T06:23:41;24.10;;;12.07;;
38089;SDS011;23904;52.322;10.232;2023-11-21T06:26:07;18.35;;;7.82;;
38089;SDS011;23904;52.322;10.232;2023-11-21T06:28:34;10.10;;;6.00;;
38089;SDS011;23904;52.322;10.232;2023-11-21T06:31:01;9.57;;;5.82;;
38089;SDS011;23904;52.322;10.232;2023-11-21T06:33:30;10.38;;;6.20;;
38089;SDS011;23904;52.322;10.232;2023-11-21T06:35:56;8.50;;;5.25;;
38089;SDS011;23904;52.322;10.232;2023-11-21T06:38:22;11.55;;;5.53;;
38089;SDS011;23904;52.322;10.232;2023-11-21T06:40:48;9.40;;;6.40;;
38089;SDS011;23904;52.322;10.232;2023-11-21T06:43:13;7.95;;;5.68;;
38089;SDS011;23904;52.322;10.232;2023-11-21T06:45:40;9.15;;;6.15;;
38089;SDS011;23904;52.322;10.232;2023-11-21T06:48:05;11.68;;;5.95;;
38089;SDS011;23904;52.322;10.232;2023-11-21T06:50:31;9.85;;;6.18;;
38089;SDS011;23904;52.322;10.232;2023-11-21T06:52:57;12.50;;;6.65;;
38089;SDS011;23904;52.322;10.232;2023-11-21T06:55:22;11.80;;;6.40;;
38089;SDS011;23904;52.322;10.232;2023-11-21T06:57:48;9.68;;;6.50;;
38089;SDS011;23904;52.322;10.232;2023-11-21T07:00:15;10.32;;;6.25;;
38089;SDS011;23904;52.322;10.232;2023-11-21T07:02:43;12.23;;;6.82;;
38089;SDS011;23904;52.322;10.232;2023-11-21T07:05:08;10.88;;;6.68;;
38089;SDS011;23904;52.322;10.232;2023-11-21T07:07:34;16.17;;;8.82;;
38089;SDS011;23904;52.322;10.232;2023-11-21T07:10:01;14.55;;;8.80;;
38089;SDS011;23904;52.322;10.232;2023-11-21T07:12:29;19.15;;;11.00;;
38089;SDS011;23904;52.322;10.232;2023-11-21T07:14:56;21.95;;;11.82;;
38089;SDS011;23904;52.322;10.232;2023-11-21T07:17:22;20.75;;;11.30;;
38089;SDS011;23904;52.322;10.232;2023-11-21T07:19:49;23.52;;;13.20;;
38089;SDS011;23904;52.322;10.232;2023-11-21T07:22:15;25.17;;;13.20;;
38089;SDS011;23904;52.322;10.232;2023-11-21T07:24:47;21.02;;;12.73;;
38089;SDS011;23904;52.322;10.232;2023-11-21T07:27:16;18.60;;;12.50;;
38089;SDS011;23904;52.322;10.232;2023-11-21T07:29:42;21.90;;;14.10;;
38089;SDS011;23904;52.322;10.232;2023-11-21T07:32:08;23.35;;;14.52;;
38089;SDS011;23904;52.322;10.232;2023-11-21T07:34:38;30.75;;;15.25;;
38089;SDS011;23904;52.322;10.232;2023-11-21T07:37:03;26.50;;;16.60;;
38089;SDS011;23904;52.322;10.232;2023-11-21T07:39:29;26.92;;;16.10;;
38089;SDS011;23904;52.322;10.232;2023-11-21T07:41:55;35.30;;;17.73;;
38089;SDS011;23904;52.322;10.232;2023-11-21T07:44:21;33.13;;;17.73;;
38089;SDS011;23904;52.322;10.232;2023-11-21T07:46:47;30.40;;;17.80;;
38089;SDS011;23904;52.322;10.232;2023-11-21T07:49:14;29.30;;;18.35;;
38089;SDS011;23904;52.322;10.232;2023-11-21T07:51:42;31.38;;;18.73;;
38089;SDS011;23904;52.322;10.232;2023-11-21T07:54:08;27.40;;;16.75;;
38089;SDS011;23904;52.322;10.232;2023-11-21T07:56:35;30.42;;;17.73;;
38089;SDS011;23904;52.322;10.232;2023-11-21T07:59:00;37.80;;;18.98;;
38089;SDS011;23904;52.322;10.232;2023-11-21T08:01:26;34.05;;;18.17;;
38089;SDS011;23904;52.322;10.232;2023-11-21T08:03:53;32.25;;;16.85;;
38089;SDS011;23904;52.322;10.232;2023-11-21T08:06:22;30.67;;;16.13;;
38089;SDS011;23904;52.322;10.232;2023-11-21T08:08:51;23.33;;;15.00;;
38089;SDS011;23904;52.322;10.232;2023-11-21T08:11:16;27.02;;;14.77;;
38089;SDS011;23904;52.322;10.232;2023-11-21T08:13:42;26.10;;;15.60;;
38089;SDS011;23904;52.322;10.232;2023-11-21T08:16:07;26.33;;;15.60;;
38089;SDS011;23904;52.322;10.232;2023-11-21T08:18:33;28.08;;;16.70;;
38089;SDS011;23904;52.322;10.232;2023-11-21T08:20:59;29.95;;;16.08;;
38089;SDS011;23904;52.322;10.232;2023-11-21T08:23:25;30.85;;;16.52;;
38089;SDS011;23904;52.322;10.232;2023-11-21T08:25:51;37.17;;;18.40;;
38089;SDS011;23904;52.322;10.232;2023-11-21T08:28:18;31.73;;;18.42;;
38089;SDS011;23904;52.322;10.232;2023-11-21T08:30:43;32.78;;;20.17;;
38089;SDS011;23904;52.322;10.232;2023-11-21T08:33:09;30.60;;;17.27;;
38089;SDS011;23904;52.322;10.232;2023-11-21T08:35:36;28.48;;;15.75;;
38089;SDS011;23904;52.322;10.232;2023-11-21T08:38:02;25.08;;;15.25;;
38089;SDS011;23904;52.322;10.232;2023-11-21T08:40:29;25.98;;;14.02;;
38089;SDS011;23904;52.322;10.232;2023-11-21T08:42:55;25.50;;;15.75;;
38089;SDS011;23904;52.322;10.232;2023-11-21T08:45:21;31.00;;;18.48;;
38089;SDS011;23904;52.322;10.232;2023-11-21T08:47:47;24.33;;;15.43;;
38089;SDS011;23904;52.322;10.232;2023-11-21T08:50:13;27.88;;;13.85;;
38089;SDS011;23904;52.322;10.232;2023-11-21T08:52:39;22.40;;;15.23;;
38089;SDS011;23904;52.322;10.232;2023-11-21T08:55:06;22.50;;;14.02;;
38089;SDS011;23904;52.322;10.232;2023-11-21T08:57:37;25.60;;;13.10;;
38089;SDS011;23904;52.322;10.232;2023-11-21T09:00:05;17.60;;;11.80;;
38089;SDS011;23904;52.322;10.232;2023-11-21T09:02:39;24.55;;;13.73;;
38089;SDS011;23904;52.322;10.232;2023-11-21T09:05:08;22.95;;;14.23;;
38089;SDS011;23904;52.322;10.232;2023-11-21T09:07:35;24.08;;;12.52;;
38089;SDS011;23904;52.322;10.232;2023-11-21T09:10:04;17.10;;;11.15;;
38089;SDS011;23904;52.322;10.232;2023-11-21T09:12:34;17.13;;;10.90;;
38089;SDS011;23904;52.322;10.232;2023-11-21T09:15:02;16.48;;;10.50;;
38089;SDS011;23904;52.322;10.232;2023-11-21T09:17:32;17.13;;;9.70;;
38089;SDS011;23904;52.322;10.232;2023-11-21T09:20:02;14.73;;;9.85;;
38089;SDS011;23904;52.322;10.232;2023-11-21T09:22:30;14.93;;;9.95;;
38089;SDS011;23904;52.322;10.232;2023-11-21T09:24:56;17.08;;;10.27;;
38089;SDS011;23904;52.322;10.232;2023-11-21T09:27:22;14.82;;;9.48;;
38089;SDS011;23904;52.322;10.232;2023-11-21T09:29:48;16.73;;;11.02;;
38089;SDS011;23904;52.322;10.232;2023-11-21T09:32:14;17.90;;;11.32;;
38089;SDS011;23904;52.322;10.232;2023-11-21T09:34:41;16.17;;;9.82;;
38089;SDS011;23904;52.322;10.232;2023-11-21T09:37:06;15.75;;;9.43;;
38089;SDS011;23904;52.322;10.232;2023-11-21T09:39:33;15.20;;;9.82;;
38089;SDS011;23904;52.322;10.232;2023-11-21T09:42:07;16.45;;;10.10;;
38089;SDS011;23904;52.322;10.232;2023-11-21T09:47:21;11.65;;;8.48;;
38089;SDS011;23904;52.322;10.232;2023-11-21T09:49:48;13.73;;;8.88;;
38089;SDS011;23904;52.322;10.232;2023-11-21T09:52:26;19.45;;;9.20;;
38089;SDS011;23904;52.322;10.232;2023-11-21T09:54:53;13.55;;;9.20;;
38089;SDS011;23904;52.322;10.232;2023-11-21T09:57:22;13.38;;;8.55;;
38089;SDS011;23904;52.322;10.232;2023-11-21T09:59:52;14.95;;;8.48;;
38089;SDS011;23904;52.322;10.232;2023-11-21T10:02:27;13.88;;;8.60;;
38089;SDS011;23904;52.322;10.232;2023-11-21T10:04:55;14.25;;;7.90;;
38089;SDS011;23904;52.322;10.232;2023-11-21T10:07:21;11.40;;;8.18;;
38089;SDS011;23904;52.322;10.232;2023-11-21T10:09:48;10.63;;;7.07;;
38089;SDS011;23904;52.322;10.232;2023-11-21T10:12:16;11.40;;;7.78;;
38089;SDS011;23904;52.322;10.232;2023-11-21T10:14:42;10.60;;;7.43;;
38089;SDS011;23904;52.322;10.232;2023-11-21T10:17:10;12.82;;;8.32;;
38089;SDS011;23904;52.322;10.232;2023-11-21T10:19:38;11.88;;;7.20;;
38089;SDS011;23904;52.322;10.232;2023-11-21T10:22:05;12.15;;;7.07;;
38089;SDS011;23904;52.322;10.232;2023-11-21T10:24:32;18.33;;;8.32;;
38089;SDS011;23904;52.322;10.232;2023-11-21T10:26:58;13.73;;;7.70;;
38089;SDS011;23904;52.322;10.232;2023-11-21T10:29:24;14.43;;;7.57;;
38089;SDS011;23904;52.322;10.232;2023-11-21T10:31:54;17.98;;;7.75;;
38089;SDS011;23904;52.322;10.232;2023-11-21T10:34:20;12.80;;;8.35;;
38089;SDS011;23904;52.322;10.232;2023-11-21T10:36:46;14.32;;;8.23;;
38089;SDS011;23904;52.322;10.232;2023-11-21T10:39:21;15.15;;;8.00;;
38089;SDS011;23904;52.322;10.232;2023-11-21T10:41:49;11.10;;;7.45;;
38089;SDS011;23904;52.322;10.232;2023-11-21T10:44:16;14.00;;;7.47;;
38089;SDS011;23904;52.322;10.232;2023-11-21T10:46:47;14.85;;;9.35;;
38089;SDS011;23904;52.322;10.232;2023-11-21T10:49:16;11.10;;;7.70;;
38089;SDS011;23904;52.322;10.232;2023-11-21T10:51:44;14.55;;;7.10;;
38089;SDS011;23904;52.322;10.232;2023-11-21T10:54:09;15.18;;;9.30;;
38089;SDS011;23904;52.322;10.232;2023-11-21T10:56:35;12.20;;;7.32;;
38089;SDS011;23904;52.322;10.232;2023-11-21T10:59:05;14.75;;;7.60;;
38089;SDS011;23904;52.322;10.232;2023-11-21T11:01:39;12.57;;;7.80;;
38089;SDS011;23904;52.322;10.232;2023-11-21T11:04:08;12.75;;;8.05;;
38089;SDS011;23904;52.322;10.232;2023-11-21T11:06:39;14.32;;;8.68;;
38089;SDS011;23904;52.322;10.232;2023-11-21T11:09:11;14.10;;;7.88;;
38089;SDS011;23904;52.322;10.232;2023-11-21T11:11:39;14.52;;;8.30;;
38089;SDS011;23904;52.322;10.232;2023-11-21T11:14:12;11.75;;;6.97;;
38089;SDS011;23904;52.322;10.232;2023-11-21T11:16:39;11.73;;;6.75;;
38089;SDS011;23904;52.322;10.232;2023-11-21T11:19:06;10.85;;;7.35;;
38089;SDS011;23904;52.322;10.232;2023-11-21T11:21:43;13.93;;;7.25;;
38089;SDS011;23904;52.322;10.232;2023-11-21T11:30:37;13.38;;;7.47;;
38089;SDS011;23904;52.322;10.232;2023-11-21T11:33:57;10.10;;;7.05;;
38089;SDS011;23904;52.322;10.232;2023-11-21T11:36:42;13.60;;;7.47;;
38089;SDS011;23904;52.322;10.232;2023-11-21T11:42:04;12.00;;;6.90;;
38089;SDS011;23904;52.322;10.232;2023-11-21T11:47:30;9.68;;;6.50;;
38089;SDS011;23904;52.322;10.232;2023-11-21T11:50:06;13.82;;;7.25;;
38089;SDS011;23904;52.322;10.232;2023-11-21T11:52:48;19.65;;;7.40;;
38089;SDS011;23904;52.322;10.232;2023-11-21T11:55:17;11.82;;;8.02;;
38089;SDS011;23904;52.322;10.232;2023-11-21T11:57:54;10.02;;;7.60;;
38089;SDS011;23904;52.322;10.232;2023-11-21T12:02:52;11.93;;;7.10;;
38089;SDS011;23904;52.322;10.232;2023-11-21T12:05:22;12.98;;;7.65;;
38089;SDS011;23904;52.322;10.232;2023-11-21T12:07:52;9.73;;;6.75;;
38089;SDS011;23904;52.322;10.232;2023-11-21T12:10:20;9.68;;;6.25;;
38089;SDS011;23904;52.322;10.232;2023-11-21T12:12:50;8.88;;;6.18;;
38089;SDS011;23904;52.322;10.232;2023-11-21T12:15:19;9.02;;;6.40;;
38089;SDS011;23904;52.322;10.232;2023-11-21T12:17:46;11.27;;;7.25;;
38089;SDS011;23904;52.322;10.232;2023-11-21T12:20:14;10.57;;;7.13;;
38089;SDS011;23904;52.322;10.232;2023-11-21T12:22:44;10.38;;;6.30;;
38089;SDS011;23904;52.322;10.232;2023-11-21T12:27:50;8.30;;;5.53;;
38089;SDS011;23904;52.322;10.232;2023-11-21T12:30:18;9.02;;;5.75;;
38089;SDS011;23904;52.322;10.232;2023-11-21T12:32:54;9.05;;;5.65;;
38089;SDS011;23904;52.322;10.232;2023-11-21T12:35:21;8.95;;;5.70;;
38089;SDS011;23904;52.322;10.232;2023-11-21T12:37:50;8.07;;;5.70;;
38089;SDS011;23904;52.322;10.232;2023-11-21T12:40:17;12.07;;;5.45;;
38089;SDS011;23904;52.322;10.232;2023-11-21T12:42:47;10.68;;;5.32;;
38089;SDS011;23904;52.322;10.232;2023-11-21T12:47:53;7.95;;;5.07;;
38089;SDS011;23904;52.322;10.232;2023-11-21T12:50:25;9.15;;;4.82;;
38089;SDS011;23904;52.322;10.232;2023-11-21T12:53:00;10.63;;;5.07;;
38089;SDS011;23904;52.322;10.232;2023-11-21T12:55:31;11.75;;;5.40;;
38089;SDS011;23904;52.322;10.232;2023-11-21T12:57:59;8.55;;;5.05;;
38089;SDS011;23904;52.322;10.232;2023-11-21T13:00:42;8.10;;;4.53;;
38089;SDS011;23904;52.322;10.232;2023-11-21T13:03:11;8.32;;;5.53;;
38089;SDS011;23904;52.322;10.232;2023-11-21T13:05:42;7.55;;;4.85;;
38089;SDS011;23904;52.322;10.232;2023-11-21T13:08:10;9.43;;;4.78;;
38089;SDS011;23904;52.322;10.232;2023-11-21T13:10:38;9.57;;;5.80;;
38089;SDS011;23904;52.322;10.232;2023-11-21T13:13:08;9.07;;;5.38;;
38089;SDS011;23904;52.322;10.232;2023-11-21T13:15:46;9.07;;;4.93;;
38089;SDS011;23904;52.322;10.232;2023-11-21T13:18:14;11.67;;;5.43;;
38089;SDS011;23904;52.322;10.232;2023-11-21T13:20:41;10.73;;;5.13;;
38089;SDS011;23904;52.322;10.232;2023-11-21T13:23:08;7.82;;;4.60;;
38089;SDS011;23904;52.322;10.232;2023-11-21T13:25:37;7.15;;;4.72;;
38089;SDS011;23904;52.322;10.232;2023-11-21T13:28:10;8.07;;;4.68;;
38089;SDS011;23904;52.322;10.232;2023-11-21T13:30:37;7.90;;;4.70;;
38089;SDS011;23904;52.322;10.232;2023-11-21T13:33:05;7.20;;;4.68;;
38089;SDS011;23904;52.322;10.232;2023-11-21T13:35:33;7.57;;;4.60;;
38089;SDS011;23904;52.322;10.232;2023-11-21T13:38:08;7.15;;;4.45;;
38089;SDS011;23904;52.322;10.232;2023-11-21T13:40:38;10.38;;;4.30;;
38089;SDS011;23904;52.322;10.232;2023-11-21T13:43:10;7.28;;;4.10;;
38089;SDS011;23904;52.322;10.232;2023-11-21T13:45:38;11.70;;;4.30;;
38089;SDS011;23904;52.322;10.232;2023-11-21T13:48:05;11.48;;;5.32;;
38089;SDS011;23904;52.322;10.232;2023-11-21T13:50:35;6.65;;;4.38;;
38089;SDS011;23904;52.322;10.232;2023-11-21T13:53:11;12.35;;;4.55;;
38089;SDS011;23904;52.322;10.232;2023-11-21T13:55:47;7.85;;;4.75;;
38089;SDS011;23904;52.322;10.232;2023-11-21T13:58:19;8.00;;;4.00;;
38089;SDS011;23904;52.322;10.232;2023-11-21T14:00:57;12.13;;;5.22;;
38089;SDS011;23904;52.322;10.232;2023-11-21T14:03:23;7.47;;;4.82;;
38089;SDS011;23904;52.322;10.232;2023-11-21T14:05:57;9.25;;;4.38;;
38089;SDS011;23904;52.322;10.232;2023-11-21T14:08:25;10.40;;;4.60;;
38089;SDS011;23904;52.322;10.232;2023-11-21T14:10:57;8.07;;;4.60;;
38089;SDS011;23904;52.322;10.232;2023-11-21T14:13:25;7.78;;;4.55;;
38089;SDS011;23904;52.322;10.232;2023-11-21T14:15:52;6.32;;;4.22;;
38089;SDS011;23904;52.322;10.232;2023-11-21T14:21:06;7.30;;;4.88;;
38089;SDS011;23904;52.322;10.232;2023-11-21T14:23:35;6.78;;;4.55;;
38089;SDS011;23904;52.322;10.232;2023-11-21T14:26:02;7.53;;;4.38;;
38089;SDS011;23904;52.322;10.232;2023-11-21T14:28:28;8.63;;;4.20;;
38089;SDS011;23904;52.322;10.232;2023-11-21T14:30:53;6.07;;;3.55;;
38089;SDS011;23904;52.322;10.232;2023-11-21T14:33:19;6.60;;;4.00;;
38089;SDS011;23904;52.322;10.232;2023-11-21T14:35:45;5.47;;;4.18;;
38089;SDS011;23904;52.322;10.232;2023-11-21T14:38:11;5.93;;;3.80;;
38089;SDS011;23904;52.322;10.232;2023-11-21T14:40:39;6.95;;;3.60;;
38089;SDS011;23904;52.322;10.232;2023-11-21T14:43:04;9.05;;;3.80;;